CheckWX is a tool to help pilots better visualize weather data.  It is not intended as a substitute for an official pre-flight weather briefing.

15:44:08 UTC

KOZW METAR
Livingston County Spencer J Hardy Airport
Howell, Michigan, USA
Current

8 mins ago

KOZW 261536Z AUTO 04004KT 10SM SCT016 BKN050 OVC060 20/15 A3003 RMK AO2 T02000150
Observed
May-26 @ 15:36 UTC
Wind
  • 040° at 4 KTS
Visibility
10 SM
Flight Rules
VFR
Cloud Levels
  • Scattered at 1,600' AGL
  • Broken at 5,000' AGL
  • Overcast at 6,000' AGL
Temperature
20°C / 68°F
Dewpoint
15°C / 59°F
Humidity
73%
Altimeter
30.03" Hg
Pressure
1016.92 hPa
Previous

28 mins ago

KOZW 261516Z AUTO 35005KT 10SM BKN016 BKN023 OVC042 19/15 A3004 RMK AO2 T01940145
Observed
May-26 @ 15:16 UTC
Wind
  • 350° at 5 KTS
Visibility
10 SM
Flight Rules
MVFR
Cloud Levels
  • Broken at 1,600' AGL
  • Broken at 2,300' AGL
  • Overcast at 4,200' AGL
Temperature
19°C / 66°F
Dewpoint
15°C / 59°F
Humidity
78%
Altimeter
30.04" Hg
Pressure
1017.32 hPa
Previous

48 mins ago

KOZW 261456Z AUTO 05003KT 10SM SCT014 OVC023 20/16 A3003 RMK AO2 T01970156
Observed
May-26 @ 14:56 UTC
Wind
  • 050° at 3 KTS
Visibility
10 SM
Flight Rules
MVFR
Cloud Levels
  • Scattered at 1,400' AGL
  • Overcast at 2,300' AGL
Temperature
20°C / 68°F
Dewpoint
16°C / 61°F
Humidity
78%
Altimeter
30.03" Hg
Pressure
1016.92 hPa